createdAt,value
2018-12-05T00:00:22.634Z,7.00
2018-12-05T00:01:22.603Z,6.90
2018-12-05T00:02:22.570Z,6.10
2018-12-05T00:03:22.537Z,6.60
2018-12-05T00:04:22.505Z,6.60
2018-12-05T00:05:22.471Z,5.70
2018-12-05T00:06:22.443Z,6.60
2018-12-05T00:07:22.406Z,7.00
2018-12-05T00:08:22.373Z,6.70
2018-12-05T00:09:22.343Z,6.80
2018-12-05T00:10:22.310Z,6.80
2018-12-05T00:11:22.276Z,7.00
2018-12-05T00:12:22.243Z,6.60
2018-12-05T00:13:22.210Z,6.30
2018-12-05T00:14:22.177Z,6.80
2018-12-05T00:15:22.145Z,5.90
2018-12-05T00:16:22.115Z,4.90
2018-12-05T00:17:22.081Z,5.60
2018-12-05T00:18:22.046Z,5.60
2018-12-05T00:19:22.014Z,7.00
2018-12-05T00:20:21.983Z,6.50
2018-12-05T00:21:21.949Z,4.80
2018-12-05T00:22:21.916Z,5.50
2018-12-05T00:23:21.886Z,5.90
2018-12-05T00:24:21.850Z,6.50
2018-12-05T00:25:21.818Z,6.30
2018-12-05T00:26:21.783Z,5.60
2018-12-05T00:27:21.750Z,6.40
2018-12-05T00:28:21.720Z,5.90
2018-12-05T00:29:21.685Z,6.50
2018-12-05T00:30:21.657Z,7.50
2018-12-05T00:31:21.619Z,6.70
2018-12-05T00:32:21.587Z,7.20
2018-12-05T00:33:21.556Z,6.70
2018-12-05T00:34:21.520Z,7.60
2018-12-05T00:35:21.487Z,8.00
2018-12-05T00:36:21.457Z,7.30
2018-12-05T00:37:21.422Z,6.70
2018-12-05T00:38:21.393Z,7.10
2018-12-05T00:39:21.355Z,7.50
2018-12-05T00:40:21.322Z,7.00
2018-12-05T00:41:21.290Z,8.00
2018-12-05T00:42:21.256Z,8.00
2018-12-05T00:43:21.225Z,7.50
2018-12-05T00:44:21.190Z,8.90
2018-12-05T00:45:21.160Z,8.70
2018-12-05T00:46:21.126Z,9.00
2018-12-05T00:47:21.091Z,9.50
2018-12-05T00:48:21.060Z,8.30
2018-12-05T00:49:21.026Z,8.70
2018-12-05T00:50:20.997Z,9.50
2018-12-05T00:51:20.960Z,7.90
2018-12-05T00:52:20.926Z,7.80
2018-12-05T00:53:20.898Z,8.60
2018-12-05T00:54:20.860Z,8.40
2018-12-05T00:55:20.829Z,7.90
2018-12-05T00:56:20.794Z,11.50
2018-12-05T00:57:20.761Z,15.60
2018-12-05T00:58:20.731Z,20.90
2018-12-05T00:59:20.695Z,8.40
2018-12-05T01:00:20.662Z,8.00
2018-12-05T01:01:20.631Z,7.50
2018-12-05T01:02:20.595Z,8.20
2018-12-05T01:03:20.562Z,7.90
2018-12-05T01:04:20.529Z,8.50
2018-12-05T01:05:20.497Z,8.40
2018-12-05T01:06:20.465Z,8.30
2018-12-05T01:07:20.430Z,9.20
2018-12-05T01:08:20.402Z,9.00
2018-12-05T01:09:20.517Z,9.50
2018-12-05T01:10:20.330Z,8.70
2018-12-05T01:11:20.297Z,9.30
2018-12-05T01:12:20.265Z,9.80
2018-12-05T01:13:20.232Z,9.00
2018-12-05T01:14:20.199Z,9.10
2018-12-05T01:15:20.166Z,8.10
2018-12-05T01:16:20.214Z,9.30
2018-12-05T01:17:20.100Z,9.80
2018-12-05T01:18:20.066Z,8.20
2018-12-05T01:19:20.032Z,8.60
2018-12-05T01:20:20.000Z,8.10
2018-12-05T01:21:19.978Z,8.00
2018-12-05T01:22:19.933Z,9.30
2018-12-05T01:23:19.906Z,7.60
2018-12-05T01:24:19.871Z,8.70
2018-12-05T01:25:19.837Z,8.40
2018-12-05T01:26:19.800Z,8.30
2018-12-05T01:27:19.768Z,7.70
2018-12-05T01:28:19.735Z,9.10
2018-12-05T01:29:19.708Z,8.30
2018-12-05T01:30:19.668Z,8.20
2018-12-05T01:31:19.636Z,8.10
2018-12-05T01:32:19.605Z,7.50
2018-12-05T01:33:19.578Z,7.40
2018-12-05T01:34:19.539Z,8.20
2018-12-05T01:35:19.503Z,7.90
2018-12-05T01:36:19.475Z,7.20
2018-12-05T01:37:19.438Z,7.30
2018-12-05T01:38:19.403Z,7.60
2018-12-05T01:39:19.371Z,7.30
2018-12-05T01:40:19.338Z,7.30
2018-12-05T01:41:19.305Z,7.40
2018-12-05T01:42:19.271Z,7.90
2018-12-05T01:43:19.238Z,8.20
2018-12-05T01:44:19.211Z,8.40
2018-12-05T01:45:19.173Z,7.30
2018-12-05T01:46:19.139Z,7.50
2018-12-05T01:47:19.106Z,7.10
2018-12-05T01:48:19.073Z,6.60
2018-12-05T01:49:19.047Z,7.50
2018-12-05T01:50:19.009Z,7.60
2018-12-05T01:51:18.974Z,7.20
2018-12-05T01:52:18.941Z,7.20
2018-12-05T01:53:18.912Z,6.90
2018-12-05T01:54:18.875Z,7.00
2018-12-05T01:55:18.845Z,6.80
2018-12-05T01:56:18.809Z,7.10
2018-12-05T01:57:18.776Z,7.00
2018-12-05T01:58:18.742Z,7.70
2018-12-05T01:59:18.727Z,7.40
2018-12-05T02:00:18.676Z,7.20
2018-12-05T02:01:18.645Z,6.80
2018-12-05T02:02:18.615Z,7.90
2018-12-05T02:03:18.577Z,8.70
2018-12-05T02:04:18.545Z,8.20
2018-12-05T02:05:18.512Z,9.10
2018-12-05T02:06:18.480Z,9.10
2018-12-05T02:07:18.447Z,9.40
2018-12-05T02:08:18.420Z,8.20
2018-12-05T02:09:18.380Z,9.10
2018-12-05T02:10:18.346Z,9.10
2018-12-05T02:11:18.313Z,9.00
2018-12-05T02:12:18.280Z,8.90
2018-12-05T02:13:18.247Z,10.10
2018-12-05T02:14:18.213Z,9.90
2018-12-05T02:15:18.182Z,9.50
2018-12-05T02:16:18.147Z,9.70
2018-12-05T02:17:18.115Z,9.00
2018-12-05T02:18:18.095Z,10.00
2018-12-05T02:19:18.062Z,10.00
2018-12-05T02:20:18.021Z,9.40
2018-12-05T02:21:17.989Z,9.00
2018-12-05T02:22:17.947Z,9.00
2018-12-05T02:23:17.922Z,10.40
2018-12-05T02:24:17.882Z,9.80
2018-12-05T02:25:17.855Z,8.50
2018-12-05T02:26:17.815Z,9.00
2018-12-05T02:27:17.785Z,8.30
2018-12-05T02:28:17.749Z,8.70
2018-12-05T02:29:17.721Z,9.00
2018-12-05T02:30:17.737Z,8.60
2018-12-05T02:31:17.662Z,8.50
2018-12-05T02:32:17.620Z,8.50
2018-12-05T02:33:17.584Z,8.20
2018-12-05T02:34:17.550Z,8.60
2018-12-05T02:35:17.517Z,10.00
2018-12-05T02:36:17.483Z,9.20
2018-12-05T02:37:17.453Z,8.70
2018-12-05T02:38:17.417Z,8.30
2018-12-05T02:39:17.386Z,8.50
2018-12-05T02:40:17.352Z,8.10
2018-12-05T02:41:17.318Z,8.60
2018-12-05T02:42:17.438Z,9.10
2018-12-05T02:43:17.293Z,9.40
2018-12-05T02:44:17.219Z,9.40
2018-12-05T02:45:17.186Z,9.20
2018-12-05T02:46:17.152Z,9.20
2018-12-05T02:47:17.119Z,9.00
2018-12-05T02:48:17.086Z,8.70
2018-12-05T02:49:17.055Z,9.40
2018-12-05T02:50:17.025Z,8.50
2018-12-05T02:51:16.985Z,8.50
2018-12-05T02:52:16.951Z,7.20
2018-12-05T02:53:16.919Z,9.40
2018-12-05T02:54:16.884Z,8.50
2018-12-05T02:55:16.851Z,7.90
2018-12-05T02:56:16.819Z,8.20
2018-12-05T02:57:16.785Z,7.90
2018-12-05T02:58:16.751Z,8.10
2018-12-05T02:59:16.719Z,6.70
2018-12-05T03:00:16.686Z,8.40
2018-12-05T03:01:16.653Z,7.90
2018-12-05T03:02:16.617Z,7.30
2018-12-05T03:03:16.586Z,8.00
2018-12-05T03:04:16.557Z,8.40
2018-12-05T03:05:16.518Z,8.30
2018-12-05T03:06:16.486Z,7.40
2018-12-05T03:07:16.452Z,7.80
2018-12-05T03:08:16.418Z,8.30
2018-12-05T03:09:16.392Z,7.00
2018-12-05T03:10:16.351Z,7.80
2018-12-05T03:11:16.318Z,7.80
2018-12-05T03:12:16.289Z,7.30
2018-12-05T03:13:16.251Z,7.90
2018-12-05T03:14:16.218Z,7.40
2018-12-05T03:15:16.200Z,7.70
2018-12-05T03:16:16.151Z,8.30
2018-12-05T03:17:16.120Z,8.50
2018-12-05T03:18:16.088Z,8.60
2018-12-05T03:19:16.051Z,8.60
2018-12-05T03:20:16.025Z,8.80
2018-12-05T03:21:15.986Z,9.10
2018-12-05T03:22:15.952Z,9.80
2018-12-05T03:23:15.918Z,9.70
2018-12-05T03:24:15.887Z,9.40
2018-12-05T03:25:15.866Z,8.90
2018-12-05T03:26:15.820Z,9.90
2018-12-05T03:27:15.788Z,9.60
2018-12-05T03:28:15.750Z,9.10
2018-12-05T03:29:15.718Z,9.60
2018-12-05T03:30:15.684Z,10.30
2018-12-05T03:31:15.671Z,9.80
2018-12-05T03:32:15.625Z,10.20
2018-12-05T03:33:15.584Z,9.50
2018-12-05T03:34:15.550Z,10.30
2018-12-05T03:35:15.518Z,10.50
2018-12-05T03:36:15.486Z,9.80
2018-12-05T03:37:15.451Z,9.40
2018-12-05T03:38:15.417Z,9.70
2018-12-05T03:39:15.384Z,10.20
2018-12-05T03:40:15.362Z,10.20
2018-12-05T03:41:15.322Z,10.50
2018-12-05T03:42:15.280Z,10.10
2018-12-05T03:43:15.247Z,10.40
2018-12-05T03:44:15.215Z,10.00
2018-12-05T03:45:15.182Z,10.40
2018-12-05T03:46:15.150Z,9.90
2018-12-05T03:47:15.266Z,10.20
2018-12-05T03:48:15.082Z,9.80
2018-12-05T03:49:15.045Z,10.30
2018-12-05T03:50:15.028Z,10.60
2018-12-05T03:51:14.979Z,10.20
2018-12-05T03:52:14.964Z,10.90
2018-12-05T03:53:14.913Z,10.00
2018-12-05T03:54:15.210Z,10.50
2018-12-05T03:55:14.844Z,10.10
2018-12-05T03:56:14.811Z,10.60
2018-12-05T03:57:14.778Z,10.70
2018-12-05T03:58:14.747Z,11.40
2018-12-05T03:59:14.719Z,11.10
2018-12-05T04:00:14.678Z,11.10
2018-12-05T04:01:14.966Z,12.20
2018-12-05T04:02:14.609Z,11.60
2018-12-05T04:03:14.575Z,12.00
2018-12-05T04:04:14.568Z,12.40
2018-12-05T04:05:14.508Z,12.10
2018-12-05T04:06:14.474Z,13.00
2018-12-05T04:07:14.764Z,12.80
2018-12-05T04:08:14.408Z,13.80
2018-12-05T04:09:14.390Z,14.80
2018-12-05T04:10:14.345Z,13.60
2018-12-05T04:11:14.297Z,14.30
2018-12-05T04:12:14.587Z,15.00
2018-12-05T04:13:14.245Z,14.80
2018-12-05T04:14:14.211Z,14.40
2018-12-05T04:15:14.166Z,15.30
2018-12-05T04:16:14.127Z,15.00
2018-12-05T04:17:14.105Z,15.70
2018-12-05T04:18:14.072Z,14.80
2018-12-05T04:19:14.025Z,16.50
2018-12-05T04:20:14.007Z,17.40
2018-12-05T04:21:13.973Z,16.80
2018-12-05T04:22:56.422Z,17.70
2018-12-05T04:23:56.050Z,17.20
2018-12-05T04:24:56.010Z,17.60
2018-12-05T04:25:56.286Z,18.60
2018-12-05T04:26:55.949Z,17.60
2018-12-05T04:27:55.899Z,19.10
2018-12-05T04:28:55.864Z,18.70
2018-12-05T04:29:55.830Z,19.20
2018-12-05T04:30:55.801Z,19.80
2018-12-05T04:31:55.763Z,19.90
2018-12-05T04:32:55.737Z,20.80
2018-12-05T04:33:55.695Z,21.00
2018-12-05T04:34:55.661Z,20.30
2018-12-05T04:35:55.945Z,20.90
2018-12-05T04:37:55.761Z,20.10
2018-12-05T04:57:11.433Z,23.40
2018-12-05T04:58:11.196Z,23.00
2018-12-05T04:59:11.153Z,23.20
2018-12-05T05:00:11.122Z,22.20
2018-12-05T05:01:11.082Z,21.40
2018-12-05T05:02:11.047Z,22.30
2018-12-05T05:03:11.163Z,21.10
2018-12-05T05:04:11.298Z,21.30
2018-12-05T05:05:11.154Z,20.90
2018-12-05T05:07:11.074Z,21.50
2018-12-05T05:08:10.837Z,21.10
2018-12-05T05:09:10.813Z,21.40
2018-12-05T05:10:10.980Z,21.20
2018-12-05T05:11:10.748Z,21.30
2018-12-05T05:12:10.707Z,20.80
2018-12-05T05:13:10.876Z,21.40
2018-12-05T05:14:10.846Z,21.30
2018-12-05T05:15:11.319Z,21.40
2018-12-05T05:16:52.906Z,22.10
2018-12-05T05:17:52.687Z,21.60
2018-12-05T05:18:52.646Z,21.90
2018-12-05T05:19:52.811Z,22.70
2018-12-05T05:20:52.567Z,21.50
2018-12-05T05:21:52.531Z,21.30
2018-12-05T05:22:52.702Z,22.20
2018-12-05T05:23:52.464Z,21.60
2018-12-05T05:24:52.430Z,22.00
2018-12-05T05:25:52.395Z,22.20
2018-12-05T05:26:52.361Z,22.10
2018-12-05T05:27:52.330Z,22.80
2018-12-05T05:28:52.301Z,21.20
2018-12-05T05:29:52.258Z,22.70
2018-12-05T05:30:52.228Z,23.60
2018-12-05T05:31:52.195Z,22.50
2018-12-05T05:32:52.158Z,23.90
2018-12-05T05:33:52.123Z,23.80
2018-12-05T05:34:52.088Z,24.20
2018-12-05T05:35:52.055Z,23.60
2018-12-05T05:36:52.021Z,24.30
2018-12-05T05:37:51.993Z,24.60
2018-12-05T05:40:58.586Z,25.80
2018-12-05T05:41:58.350Z,25.30
2018-12-05T05:42:58.520Z,24.50
2018-12-05T05:44:40.631Z,25.80
2018-12-05T05:45:40.390Z,25.30
2018-12-05T05:46:40.559Z,24.90
2018-12-05T05:47:40.321Z,23.70
2018-12-05T05:48:40.488Z,26.00
2018-12-05T05:49:40.252Z,24.20
2018-12-05T05:50:40.235Z,25.20
2018-12-05T05:51:40.703Z,24.40
2018-12-05T05:52:40.361Z,24.40
2018-12-05T05:53:40.131Z,26.60
2018-12-05T05:54:40.483Z,26.50
2018-12-05T05:55:40.062Z,27.40
2018-12-05T05:56:40.010Z,27.00
2018-12-05T05:57:40.178Z,27.20
2018-12-05T05:58:39.949Z,26.40
2018-12-05T05:59:39.909Z,28.80
2018-12-05T06:00:39.875Z,28.00
2018-12-05T06:01:39.840Z,29.20
2018-12-05T06:02:39.803Z,29.10
2018-12-05T06:03:39.772Z,30.30
2018-12-05T06:12:23.506Z,34.50
2018-12-05T06:13:23.272Z,33.90
2018-12-05T06:14:23.231Z,33.80
2018-12-05T06:15:23.197Z,33.50
2018-12-05T06:16:23.170Z,33.90
2018-12-05T06:17:23.124Z,34.10
2018-12-05T06:18:23.090Z,34.80
2018-12-05T06:19:23.054Z,32.90
2018-12-05T06:20:23.021Z,29.90
2018-12-05T06:21:22.984Z,30.70
2018-12-05T06:22:22.948Z,31.20
2018-12-05T06:23:22.914Z,34.60
2018-12-05T06:24:22.881Z,34.60
2018-12-05T06:25:22.843Z,35.70
2018-12-05T06:26:22.809Z,37.30
2018-12-05T06:27:22.775Z,36.80
2018-12-05T06:28:22.754Z,37.30
2018-12-05T06:29:22.704Z,39.00
2018-12-05T06:30:22.668Z,38.70
2018-12-05T06:31:22.634Z,40.90
2018-12-05T06:32:22.599Z,40.90
2018-12-05T06:33:22.564Z,39.40
2018-12-05T06:34:22.543Z,38.90
2018-12-05T06:35:22.709Z,36.90
2018-12-05T06:36:22.460Z,40.00
2018-12-05T06:37:22.430Z,39.10
2018-12-05T06:38:22.401Z,40.70
2018-12-05T06:39:22.355Z,42.00
2018-12-05T06:40:22.319Z,41.40
2018-12-05T06:41:22.602Z,42.40
2018-12-05T06:42:22.256Z,42.20
2018-12-05T06:44:22.182Z,40.40
2018-12-05T06:45:22.145Z,41.10
2018-12-05T06:46:22.112Z,42.10
2018-12-05T06:47:22.092Z,39.80
2018-12-05T06:48:22.044Z,39.30
2018-12-05T06:49:22.023Z,42.00
2018-12-05T06:50:21.972Z,41.00
2018-12-05T06:51:21.953Z,38.60
2018-12-05T06:52:22.119Z,35.00
2018-12-05T06:54:21.844Z,37.70
2018-12-05T06:55:21.817Z,37.30
2018-12-05T06:56:21.984Z,37.60
2018-12-05T07:31:46.869Z,41.60
2018-12-05T07:32:46.630Z,40.30
2018-12-05T07:33:46.587Z,41.30
2018-12-05T07:34:46.552Z,39.70
2018-12-05T07:35:46.513Z,41.10
2018-12-05T07:36:46.477Z,39.90
2018-12-05T07:37:46.442Z,40.00
2018-12-05T07:38:46.405Z,42.70
2018-12-05T07:39:46.371Z,42.40
2018-12-05T07:40:46.335Z,39.00
2018-12-05T07:41:46.306Z,38.60
2018-12-05T07:42:46.467Z,38.00
2018-12-05T07:43:46.228Z,39.20
2018-12-05T07:44:46.195Z,37.70
2018-12-05T07:45:46.159Z,39.00
2018-12-05T07:46:46.123Z,35.80
2018-12-05T07:47:46.092Z,35.10
2018-12-05T07:48:46.057Z,35.70
2018-12-05T07:49:46.020Z,34.90
2018-12-05T07:50:45.987Z,33.30
2018-12-05T07:51:45.954Z,34.90
2018-12-05T07:52:45.917Z,32.40
2018-12-05T07:53:45.885Z,30.20
2018-12-05T07:54:45.850Z,30.70
2018-12-05T07:55:45.816Z,30.60
2018-12-05T07:56:45.782Z,30.40
2018-12-05T07:57:45.750Z,29.10
2018-12-05T07:58:45.713Z,29.10
2018-12-05T07:59:45.691Z,29.10
2018-12-05T08:00:45.646Z,26.00
2018-12-05T08:01:45.614Z,26.20
2018-12-05T08:02:45.579Z,24.00
2018-12-05T08:03:45.547Z,24.20
2018-12-05T08:04:45.512Z,23.50
2018-12-05T08:05:45.479Z,23.40
2018-12-05T08:06:45.480Z,22.10
2018-12-05T08:07:45.418Z,20.90
2018-12-05T08:08:45.419Z,20.20
2018-12-05T08:09:45.346Z,19.40
2018-12-05T08:10:45.315Z,19.80
2018-12-05T08:11:45.282Z,19.70
2018-12-05T08:12:45.246Z,18.50
2018-12-05T08:13:45.219Z,18.30
2018-12-05T08:14:45.183Z,18.30
2018-12-05T08:15:45.146Z,17.20
2018-12-05T08:16:45.116Z,16.80
2018-12-05T08:17:45.081Z,16.30
2018-12-05T08:18:45.062Z,15.60
2018-12-05T08:19:45.016Z,16.40
2018-12-05T08:20:44.982Z,15.80
2018-12-05T08:21:44.952Z,15.80
2018-12-05T08:22:44.917Z,16.10
2018-12-05T08:23:44.887Z,15.10
2018-12-05T08:24:44.851Z,15.70
2018-12-05T08:25:45.136Z,15.30
2018-12-05T08:26:44.787Z,15.10
2018-12-05T08:27:44.756Z,15.20
2018-12-05T08:28:44.720Z,15.00
2018-12-05T08:29:44.686Z,14.90
2018-12-05T08:30:44.654Z,14.30
2018-12-05T08:31:44.635Z,13.20
2018-12-05T08:32:44.589Z,14.50
2018-12-05T08:33:44.568Z,13.50
2018-12-05T08:34:44.541Z,14.80
2018-12-05T08:35:44.509Z,13.20
2018-12-05T08:36:44.470Z,13.10
2018-12-05T08:37:44.441Z,13.20
2018-12-05T08:38:44.395Z,13.20
2018-12-05T08:39:44.366Z,12.90
2018-12-05T08:40:44.330Z,12.90
2018-12-05T08:42:44.277Z,12.90
2018-12-05T08:43:44.651Z,12.80
2018-12-05T08:44:44.201Z,12.30
2018-12-05T08:45:44.180Z,12.20
2018-12-05T08:46:44.148Z,12.20
2018-12-05T08:47:44.107Z,12.40
2018-12-05T08:48:44.092Z,13.40
2018-12-05T08:49:44.044Z,12.30
2018-12-05T08:50:44.012Z,12.10
2018-12-05T08:51:43.983Z,13.30
2018-12-05T08:52:43.947Z,12.60
2018-12-05T08:53:43.925Z,12.60
2018-12-05T08:54:43.886Z,12.80
2018-12-05T08:55:44.174Z,11.20
2018-12-05T08:56:43.837Z,11.80
2018-12-05T08:57:43.794Z,12.40
2018-12-05T08:58:43.762Z,12.00
2018-12-05T08:59:43.735Z,11.90
2018-12-05T09:00:43.697Z,11.60
2018-12-05T09:01:43.667Z,11.10
2018-12-05T09:02:43.640Z,11.20
2018-12-05T09:03:43.661Z,11.60
2018-12-05T09:04:43.574Z,11.60
2018-12-05T09:05:43.543Z,11.60
2018-12-05T09:06:43.513Z,11.30
2018-12-05T09:07:43.483Z,11.80
2018-12-05T09:08:43.450Z,12.20
2018-12-05T09:09:43.424Z,12.00
2018-12-05T09:10:43.391Z,12.20
2018-12-05T09:11:43.360Z,12.00
2018-12-05T09:12:43.337Z,11.70
2018-12-05T09:13:43.300Z,11.60
2018-12-05T09:14:43.274Z,12.10
2018-12-05T09:15:43.242Z,12.80
2018-12-05T09:16:43.207Z,11.60
2018-12-05T09:17:43.177Z,12.40
2018-12-05T09:18:43.155Z,12.00
2018-12-05T09:19:43.117Z,11.90
2018-12-05T09:20:43.091Z,12.30
2018-12-05T09:21:43.058Z,12.60
2018-12-05T09:22:43.029Z,12.60
2018-12-05T09:23:42.999Z,12.40
2018-12-05T09:24:42.979Z,13.90
2018-12-05T09:25:42.947Z,14.40
2018-12-05T09:26:42.909Z,14.30
2018-12-05T09:27:42.889Z,14.60
2018-12-05T09:28:43.063Z,13.90
2018-12-05T09:29:42.817Z,14.90
2018-12-05T09:30:42.788Z,14.30
2018-12-05T09:31:42.762Z,14.40
2018-12-05T09:32:42.747Z,14.30
2018-12-05T09:33:42.697Z,14.20
2018-12-05T09:34:42.669Z,14.50
2018-12-05T09:35:42.640Z,14.70
2018-12-05T09:36:42.609Z,15.10
2018-12-05T09:37:42.897Z,14.00
2018-12-05T09:38:42.548Z,15.10
2018-12-05T09:39:42.518Z,14.60
2018-12-05T09:40:42.488Z,13.60
2018-12-05T09:41:42.459Z,14.00
2018-12-05T09:42:42.427Z,15.20
2018-12-05T09:43:42.421Z,15.60
2018-12-05T09:44:42.369Z,14.40
2018-12-05T09:45:42.349Z,14.20
2018-12-05T09:46:42.311Z,13.30
2018-12-05T09:47:42.287Z,14.10
2018-12-05T09:48:42.254Z,14.20
2018-12-05T09:49:42.224Z,14.00
2018-12-05T09:50:42.199Z,13.10
2018-12-05T09:51:42.159Z,12.80
2018-12-05T09:52:42.133Z,13.30
2018-12-05T09:53:42.098Z,13.30
2018-12-05T09:54:42.282Z,12.40
2018-12-05T09:55:42.041Z,14.10
2018-12-05T09:56:42.008Z,13.20
2018-12-05T09:57:41.988Z,13.90
2018-12-05T09:58:41.949Z,12.60
2018-12-05T09:59:41.920Z,13.20
2018-12-05T10:00:41.887Z,13.00
2018-12-05T10:01:41.870Z,14.00
2018-12-05T10:02:41.829Z,13.30
2018-12-05T10:03:41.820Z,12.90
2018-12-05T10:04:41.774Z,13.30
2018-12-05T10:05:41.741Z,13.20
2018-12-05T10:06:41.715Z,13.70
2018-12-05T10:07:41.691Z,13.30
2018-12-05T10:08:41.653Z,13.80
2018-12-05T10:09:43.279Z,12.50
2018-12-05T10:10:41.600Z,12.70
2018-12-05T10:11:41.571Z,12.40
2018-12-05T10:12:41.835Z,12.30
2018-12-05T10:13:41.516Z,12.60
2018-12-05T10:14:41.682Z,12.10
2018-12-05T10:15:41.444Z,13.20
2018-12-05T10:16:41.427Z,13.20
2018-12-05T10:17:42.807Z,12.70
2018-12-05T10:18:41.369Z,12.60
2018-12-05T10:19:41.340Z,13.40
2018-12-05T10:20:42.117Z,14.00
2018-12-05T10:21:41.267Z,13.80
2018-12-05T10:22:41.236Z,13.50
2018-12-05T10:23:41.410Z,12.80
2018-12-05T10:24:41.187Z,13.70
2018-12-05T10:25:41.181Z,13.80
2018-12-05T10:26:41.131Z,12.70
2018-12-05T10:27:41.292Z,12.90
2018-12-05T10:28:41.059Z,12.80
2018-12-05T10:29:41.044Z,12.60
2018-12-05T10:30:41.011Z,13.40
2018-12-05T10:31:44.183Z,13.10
2018-12-05T10:32:40.955Z,14.20
2018-12-05T10:33:40.940Z,12.50
2018-12-05T10:34:40.894Z,13.20
2018-12-05T10:35:41.060Z,13.10
2018-12-05T10:36:40.829Z,13.40
2018-12-05T10:37:40.813Z,13.30
2018-12-05T10:38:44.198Z,14.00
2018-12-05T10:39:40.749Z,12.80
2018-12-05T10:40:40.703Z,13.30
2018-12-05T10:41:40.675Z,13.30
2018-12-05T10:42:40.680Z,14.00
2018-12-05T10:43:40.628Z,13.10
2018-12-05T10:44:40.653Z,14.60
2018-12-05T10:45:40.584Z,14.30
2018-12-05T10:46:40.734Z,14.70
2018-12-05T10:47:40.507Z,14.00
2018-12-05T10:48:40.705Z,14.10
2018-12-05T10:49:40.448Z,14.60
2018-12-05T10:50:40.407Z,14.60
2018-12-05T10:51:40.379Z,14.70
2018-12-05T10:52:40.348Z,15.40
2018-12-05T10:53:40.536Z,13.70
2018-12-05T10:54:40.318Z,14.40
2018-12-05T10:55:40.270Z,15.20
2018-12-05T10:56:40.266Z,15.30
2018-12-05T10:57:40.210Z,14.80
2018-12-05T10:58:40.175Z,14.70
2018-12-05T10:59:40.158Z,14.80
2018-12-05T11:00:40.109Z,14.70
2018-12-05T11:01:40.080Z,14.30
2018-12-05T11:02:40.052Z,14.00
2018-12-05T11:03:40.021Z,14.40
2018-12-05T11:04:39.994Z,14.90
2018-12-05T11:05:39.968Z,14.60
2018-12-05T11:06:39.931Z,13.60
2018-12-05T11:07:39.919Z,15.70
2018-12-05T11:08:39.889Z,14.50
2018-12-05T11:09:39.854Z,13.90
2018-12-05T11:10:40.027Z,14.20
2018-12-05T11:11:39.790Z,13.60
2018-12-05T11:12:39.755Z,12.70
2018-12-05T11:13:39.725Z,14.20
2018-12-05T11:14:39.712Z,13.50
2018-12-05T11:15:39.709Z,13.70
2018-12-05T11:16:39.656Z,13.70
2018-12-05T11:17:39.610Z,13.90
2018-12-05T11:18:39.579Z,14.30
2018-12-05T11:19:39.563Z,13.30
2018-12-05T11:20:39.723Z,13.20
2018-12-05T11:21:39.501Z,13.80
2018-12-05T11:22:39.462Z,14.40
2018-12-05T11:23:39.637Z,13.60
2018-12-05T11:24:39.425Z,13.50
2018-12-05T11:25:39.378Z,14.70
2018-12-05T11:26:39.866Z,14.30
2018-12-05T11:27:39.348Z,13.90
2018-12-05T11:28:39.303Z,14.60
2018-12-05T11:29:39.272Z,14.80
2018-12-05T11:30:39.227Z,15.10
2018-12-05T11:31:39.209Z,15.40
2018-12-05T11:32:39.174Z,13.90
2018-12-05T11:33:39.155Z,15.20
2018-12-05T11:34:39.141Z,15.20
2018-12-05T11:35:39.484Z,15.40
2018-12-05T11:36:39.257Z,15.40
2018-12-05T11:37:39.033Z,15.60
2018-12-05T11:39:39.284Z,15.30
2018-12-05T11:40:38.942Z,14.90
2018-12-05T11:41:38.918Z,15.40
2018-12-05T11:42:39.075Z,14.70
2018-12-05T11:43:38.857Z,15.10
2018-12-05T11:44:39.014Z,14.70
2018-12-05T11:45:38.790Z,14.20
2018-12-05T11:46:38.756Z,15.20
2018-12-05T11:47:38.723Z,14.20
2018-12-05T11:48:38.693Z,15.10
2018-12-05T11:49:39.012Z,14.60
2018-12-05T11:50:38.633Z,13.70
2018-12-05T11:51:38.604Z,13.70
2018-12-05T11:52:38.575Z,13.80
2018-12-05T11:53:38.543Z,14.70
2018-12-05T11:54:38.521Z,13.60
2018-12-05T11:55:38.483Z,13.30
2018-12-05T11:56:38.454Z,13.90
2018-12-05T11:57:38.424Z,13.20
2018-12-05T11:58:38.409Z,13.30
2018-12-05T11:59:38.365Z,13.20
2018-12-05T12:00:38.333Z,13.40
2018-12-05T12:01:38.307Z,14.00
2018-12-05T12:02:38.276Z,12.90
2018-12-05T12:03:38.245Z,12.70
2018-12-05T12:04:38.217Z,12.40
2018-12-05T12:05:38.190Z,13.00
2018-12-05T12:06:38.168Z,12.50
2018-12-05T12:07:38.127Z,12.80
2018-12-05T12:08:38.096Z,11.50
2018-12-05T12:09:38.067Z,12.90
2018-12-05T12:10:38.039Z,12.10
2018-12-05T12:11:38.010Z,11.90
2018-12-05T12:12:37.981Z,12.70
2018-12-05T12:13:37.959Z,11.60
2018-12-05T12:14:37.930Z,12.50
2018-12-05T12:15:37.902Z,13.10
2018-12-05T12:16:37.861Z,13.10
2018-12-05T12:17:37.838Z,13.70
2018-12-05T12:18:37.875Z,13.60
2018-12-05T12:19:37.786Z,13.70
2018-12-05T12:20:37.746Z,13.70
2018-12-05T12:21:37.716Z,14.40
2018-12-05T12:22:37.775Z,14.70
2018-12-05T12:23:37.666Z,13.50
2018-12-05T12:24:37.635Z,13.80
2018-12-05T12:25:37.601Z,14.10
2018-12-05T12:26:37.572Z,14.20
2018-12-05T12:27:37.541Z,12.90
2018-12-05T12:28:37.514Z,14.30
2018-12-05T12:29:37.483Z,14.00
2018-12-05T12:30:37.453Z,14.20
2018-12-05T12:31:37.425Z,13.80
2018-12-05T12:32:37.394Z,13.30
2018-12-05T12:33:37.364Z,13.90
2018-12-05T12:34:37.336Z,13.70
2018-12-05T12:35:37.305Z,12.60
2018-12-05T12:36:37.282Z,13.50
2018-12-05T12:37:37.245Z,12.70
2018-12-05T12:38:37.217Z,13.00
2018-12-05T12:39:37.394Z,12.60
2018-12-05T12:40:37.155Z,12.60
2018-12-05T12:41:37.127Z,11.60
2018-12-05T12:42:37.100Z,12.60
2018-12-05T12:43:37.067Z,12.40
2018-12-05T12:44:37.038Z,13.00
2018-12-05T12:45:37.011Z,11.90
2018-12-05T12:46:36.989Z,11.00
2018-12-05T12:47:36.951Z,10.70
2018-12-05T12:48:36.922Z,11.00
2018-12-05T12:49:36.892Z,11.10
2018-12-05T12:50:36.871Z,11.10
2018-12-05T12:51:36.833Z,11.00
2018-12-05T12:52:36.815Z,10.60
2018-12-05T12:53:36.774Z,9.90
2018-12-05T12:54:36.746Z,10.50
2018-12-05T12:55:36.720Z,10.20
2018-12-05T12:56:36.689Z,10.70
2018-12-05T12:57:36.663Z,9.80
2018-12-05T12:58:36.631Z,10.20
2018-12-05T12:59:36.608Z,10.20
2018-12-05T13:00:36.573Z,10.40
2018-12-05T13:01:36.549Z,10.10
2018-12-05T13:02:36.523Z,10.40
2018-12-05T13:03:36.489Z,9.90
2018-12-05T13:04:36.461Z,10.00
2018-12-05T13:05:36.436Z,10.30
2018-12-05T13:06:36.405Z,10.70
2018-12-05T13:07:36.387Z,10.60
2018-12-05T13:08:36.352Z,11.60
2018-12-05T13:09:36.330Z,10.00
2018-12-05T13:10:36.294Z,10.10
2018-12-05T13:11:36.266Z,12.20
2018-12-05T13:12:36.238Z,10.10
2018-12-05T13:13:36.212Z,10.70
2018-12-05T13:14:36.181Z,11.60
2018-12-05T13:15:36.166Z,10.50
2018-12-05T13:16:36.125Z,11.30
2018-12-05T13:17:36.099Z,10.80
2018-12-05T13:18:36.072Z,11.10
2018-12-05T13:19:36.043Z,11.10
2018-12-05T13:20:36.019Z,10.90
2018-12-05T13:21:35.985Z,11.40
2018-12-05T13:22:35.958Z,11.70
2018-12-05T13:23:35.943Z,10.90
2018-12-05T13:24:35.903Z,11.40
2018-12-05T13:25:35.879Z,10.40
2018-12-05T13:26:35.844Z,10.80
2018-12-05T13:27:35.816Z,12.20
2018-12-05T13:28:35.791Z,11.70
2018-12-05T13:29:35.774Z,12.10
2018-12-05T13:30:35.728Z,11.50
2018-12-05T13:31:35.697Z,12.20
2018-12-05T13:32:35.667Z,12.80
2018-12-05T13:33:35.639Z,10.90
2018-12-05T13:34:35.618Z,11.10
2018-12-05T13:35:35.581Z,12.20
2018-12-05T13:36:35.554Z,12.00
2018-12-05T13:37:35.529Z,11.90
2018-12-05T13:38:35.489Z,11.80
2018-12-05T13:39:35.462Z,11.60
2018-12-05T13:40:35.429Z,12.50
2018-12-05T13:41:35.401Z,12.20
2018-12-05T13:42:35.372Z,12.30
2018-12-05T13:43:35.341Z,12.10
2018-12-05T13:44:35.312Z,12.90
2018-12-05T13:45:35.282Z,12.50
2018-12-05T13:46:35.250Z,12.20
2018-12-05T13:47:35.221Z,13.30
2018-12-05T13:49:17.542Z,13.10
2018-12-05T13:50:17.307Z,12.70
2018-12-05T13:51:17.275Z,12.10
2018-12-05T13:52:17.246Z,11.80
2018-12-05T13:53:17.214Z,12.00
2018-12-05T13:54:17.182Z,13.20
2018-12-05T13:55:17.156Z,12.50
2018-12-05T13:56:17.138Z,13.10
2018-12-05T13:57:17.094Z,12.80
2018-12-05T13:58:17.062Z,12.30
2018-12-05T13:59:17.031Z,12.70
2018-12-05T14:00:17.016Z,13.40
2018-12-05T14:01:16.977Z,12.70
2018-12-05T14:02:16.951Z,12.20
2018-12-05T14:03:17.231Z,12.40
2018-12-05T14:04:16.878Z,13.50
2018-12-05T14:05:16.849Z,13.30
2018-12-05T14:06:16.824Z,12.90
2018-12-05T14:07:16.784Z,13.60
2018-12-05T14:08:16.753Z,12.70
2018-12-05T14:09:16.722Z,13.10
2018-12-05T14:10:16.698Z,12.90